Ana Sayfa
METAR-TAF:

METAR-TAF

Havaalanları :

Spirit of St Louis Airport

St. Louis, Missouri, Amerika Birleşik Devletleri

Enlem: 38-39-26N, Boylam: 090-39-21W, yükseklik: 141 m

Güncel hava durumu gözlemi

Rapor saat 10:54 UTC de 1 saat ve 7 dakika önce yapıldı.
Sakin rüzgar
Sıcaklık 17°C
Nem 100%
Basınç 1013 hPa
Görüş mesafesi: 16.1 km
5500 ft yükseklikte çok bulutlu

METAR: KSUS 231054Z 00000KT 10SM OVC055 17/17 A2990 RMK AO2 LTG DSNT S RAE12 SLP121 P0000 T01720167

Saat: 07:01 (12:01 UTC)

Tahmin

Rapor saat 11:20 UTC de 41 dakika önce yapıldı.
Ayın 23'si saat 12 UTC'den ayın 24'si saat 12 UTC'ye kadar geçerli Tahmin
Rüzgar doğu/güneydoğudan 5 kt
Görüş mesafesi: 10 km
4000 ft yükseklikte parçalı bulutlu
Ayın 23'si saat 2300 UTC'den
Rüzgar güney/güneydoğudan 5 kt
Görüş mesafesi: 10 km
25000 ft yükseklikte az bulutlu

TAF: KSUS 231120Z 2312/2412 12005KT P6SM SCT040 FM232300 15005KT P6SM FEW250

4.000'den fazla havaalanı için hava durumu gözlemleri ve tahminleri (METAR ve TAF raporları).

Kullanılabilir istasyonlar harita üzerinde sarı ve kırmızı noktalarla gösterilir.

İstasyonun adını görmek için fareyi noktanın üzerinde gezdirin.

Sonrasında hava gözlem ve tahminlerini görmek için tıklayın.

Haritayı değiştirmek için: yaklaştırmak için siyah artı işaretli yeşil düğmeye ve uzaklaştırmak için de eksi işaretli düğmeye hızla tıklayın; bitişik haritalar için yeşil okları kullanın.


METAR-TAF: